Date,TemperatureHighF,TemperatureAvgF,TemperatureLowF,DewpointHighF,DewpointAvgF,DewpointLowF,HumidityHigh,HumidityAvg,HumidityLow,PressureMaxIn,PressureMinIn,WindSpeedMaxMPH,WindSpeedAvgMPH,GustSpeedMaxMPH,PrecipitationSumIn
2013-2-1,5.0,-3.7,-12.0,1.0,-10.4,-18.0,84,73,58,30.50,30.24,0,0,0,0.00
2013-2-2,11.0,5.5,1.0,6.0,-0.1,-4.0,92,77,65,30.36,30.14,0,0,0,0.00
2013-2-3,12.0,9.3,4.0,9.0,4.0,-1.0,92,79,67,30.25,30.12,0,0,0,0.00
2013-2-4,15.0,9.8,3.0,11.0,2.4,-3.0,87,72,54,30.22,29.89,0,0,0,0.00
2013-2-5,28.0,21.8,8.0,25.0,16.5,4.0,91,81,59,30.20,29.80,0,0,0,0.00
2013-2-6,27.0,15.6,4.0,20.0,11.5,0.0,87,84,73,30.23,30.06,0,0,0,0.00
2013-2-7,27.0,24.6,20.0,23.0,21.0,17.0,91,86,78,30.38,30.11,0,0,0,0.00
2013-2-8,26.0,22.5,16.0,21.0,17.5,12.0,85,81,74,30.49,30.33,0,0,0,0.00
2013-2-9,32.0,28.3,25.0,29.0,24.7,21.0,91,87,84,30.33,30.03,0,0,0,0.00
2013-2-10,33.0,30.1,28.0,31.0,27.7,25.0,94,91,87,30.03,29.38,0,0,0,0.00
2013-2-11,29.0,23.7,14.0,27.0,19.2,10.0,93,83,76,30.16,29.45,0,0,0,0.00
2013-2-12,33.0,22.8,13.0,24.0,17.4,9.0,92,80,67,30.16,29.93,0,0,0,0.00
2013-2-13,37.0,27.6,18.0,31.0,23.0,15.0,92,83,68,29.93,29.67,0,0,0,0.00
2013-2-14,32.0,25.2,11.0,30.0,18.3,3.0,93,77,48,30.30,29.68,0,0,0,0.00
2013-2-15,18.0,9.3,3.0,6.0,2.1,-1.0,84,72,57,30.45,30.30,0,0,0,0.00
2013-2-16,25.0,9.4,1.0,11.0,3.4,-2.0,88,77,51,30.42,30.25,0,0,0,0.00
2013-2-17,32.0,21.1,8.0,24.0,14.7,3.0,84,76,65,30.26,29.73,0,0,0,0.00
2013-2-18,33.0,22.3,6.0,30.0,17.0,1.0,89,80,73,29.95,29.62,0,0,0,0.00
2013-2-19,6.0,2.5,-3.0,1.0,-5.2,-10.0,81,70,58,30.54,29.95,0,0,0,0.00
2013-2-20,17.0,4.5,-7.0,3.0,-3.6,-12.0,81,69,52,30.64,30.54,0,0,0,0.00
2013-2-21,24.0,14.3,3.0,14.0,6.2,-2.0,83,70,55,30.60,30.23,0,0,0,0.00
2013-2-22,29.0,22.9,20.0,22.0,18.7,14.0,88,84,69,30.23,29.99,0,0,0,0.00
2013-2-23,28.0,21.4,13.0,22.0,17.5,10.0,90,85,73,30.09,29.97,0,0,0,0.00
2013-2-24,38.0,19.1,4.0,23.0,12.8,1.0,90,77,54,30.24,30.08,0,0,0,0.00
2013-2-25,28.0,23.6,19.0,21.0,18.9,15.0,87,82,73,30.23,30.06,0,0,0,0.00
2013-2-26,36.0,24.5,13.0,27.0,19.7,10.0,91,82,69,30.09,29.93,0,0,0,0.00
2013-2-27,40.0,31.4,27.0,27.0,24.1,22.0,84,75,54,30.06,29.91,0,0,0,0.00
2013-2-28,31.0,28.0,23.0,23.0,20.6,16.0,82,73,67,30.25,30.06,0,0,0,0.00